AFR1391 LTFM-LFPG
Flight info
| Callsign | AFR1391 |
|---|---|
| Flight time | 3h 5m |
| Altitude | 36000 |
| Route | TUDBU1D/35L TUDBU Q26 ETUBA DCT ELDET DCT BACAM DCT SODGO DCT DIDIX DCT INVED DCT STEIN DCT RENKA L610 MAMOR DCT ASPAT DCT VIBOM DCT BETEX DCT IDOSA DCT TOLVU DCT RAPOR DCT VEDUS VEDUS9E |
| Aircraft | A321/M-SDE3FGHIRWY/LB1 |
Departure
| Time | 2026-05-04 16:58 |
|---|---|
| Airport | İstanbul Airport (LTFM) |
Arrival
| Time | 2026-05-04 20:03 |
|---|---|
| Airport | Charles de Gaulle International Airport (LFPG) |
| Time | Latitude | Longitude | Altitude | Speed | Heading |
|---|---|---|---|---|---|
| 2026-05-04 16:13 | 41.26673 | 28.74137 | 339 ft | 0 kts | 91° |
| 2026-05-04 16:14 | 41.26734 | 28.74119 | 336 ft | 0 kts | 91° |
| 2026-05-04 16:34 | 41.26734 | 28.74104 | 339 ft | 4 kts | 88° |
| 2026-05-04 16:34 | 41.26730 | 28.74069 | 349 ft | 4 kts | 74° |
| 2026-05-04 16:35 | 41.26694 | 28.74017 | 335 ft | 0 kts | 359° |
| 2026-05-04 16:39 | 41.26742 | 28.74017 | 338 ft | 7 kts | 1° |
| 2026-05-04 16:40 | 41.26885 | 28.74017 | 339 ft | 13 kts | 360° |
| 2026-05-04 16:40 | 41.27043 | 28.73973 | 339 ft | 12 kts | 296° |
| 2026-05-04 16:41 | 41.27047 | 28.73728 | 338 ft | 15 kts | 269° |
| 2026-05-04 16:41 | 41.27041 | 28.73331 | 339 ft | 13 kts | 269° |
| 2026-05-04 16:42 | 41.27007 | 28.72998 | 339 ft | 13 kts | 208° |
| 2026-05-04 16:43 | 41.26815 | 28.72995 | 338 ft | 15 kts | 178° |
| 2026-05-04 16:43 | 41.26590 | 28.72996 | 335 ft | 17 kts | 179° |
| 2026-05-04 16:43 | 41.26498 | 28.72998 | 337 ft | 14 kts | 179° |
| 2026-05-04 16:44 | 41.26220 | 28.72945 | 337 ft | 8 kts | 250° |
| 2026-05-04 16:45 | 41.26213 | 28.72769 | 339 ft | 11 kts | 271° |
| 2026-05-04 16:46 | 41.26214 | 28.72719 | 339 ft | 0 kts | 270° |
| 2026-05-04 16:47 | 41.26213 | 28.72664 | 339 ft | 10 kts | 268° |
| 2026-05-04 16:47 | 41.26276 | 28.72521 | 338 ft | 1 kts | 354° |
| 2026-05-04 16:48 | 41.26294 | 28.72520 | 337 ft | 0 kts | 0° |
| 2026-05-04 16:49 | 41.26293 | 28.72520 | 337 ft | 0 kts | 0° |
| 2026-05-04 16:49 | 41.26292 | 28.72520 | 337 ft | 0 kts | 0° |
| 2026-05-04 16:50 | 41.26291 | 28.72520 | 337 ft | 0 kts | 0° |
| 2026-05-04 16:50 | 41.26290 | 28.72520 | 337 ft | 0 kts | 0° |
| 2026-05-04 16:57 | 41.26693 | 28.72514 | 335 ft | 82 kts | 359° |
| 2026-05-04 16:58 | 41.29502 | 28.72457 | 934 ft | 151 kts | 358° |
| 2026-05-04 16:58 | 41.30561 | 28.72459 | 1427 ft | 153 kts | 5° |
| 2026-05-04 16:59 | 41.32751 | 28.72481 | 2381 ft | 169 kts | 4° |
| 2026-05-04 17:00 | 41.38587 | 28.72300 | 4480 ft | 242 kts | 349° |
| 2026-05-04 17:00 | 41.43312 | 28.69336 | 6911 ft | 256 kts | 340° |
| 2026-05-04 17:01 | 41.46563 | 28.67236 | 8507 ft | 263 kts | 340° |
| 2026-05-04 17:01 | 41.49885 | 28.65097 | 10174 ft | 269 kts | 340° |
| 2026-05-04 17:02 | 41.53511 | 28.62781 | 10827 ft | 309 kts | 339° |
| 2026-05-04 17:02 | 41.57566 | 28.59908 | 11345 ft | 354 kts | 328° |
| 2026-05-04 17:03 | 41.59415 | 28.57581 | 11596 ft | 377 kts | 317° |
| 2026-05-04 17:03 | 41.61210 | 28.54926 | 11863 ft | 392 kts | 316° |
| 2026-05-04 17:03 | 41.64907 | 28.49415 | 12850 ft | 402 kts | 316° |
| 2026-05-04 17:04 | 41.68150 | 28.43243 | 13795 ft | 420 kts | 298° |
| 2026-05-04 17:04 | 41.70484 | 28.36022 | 14756 ft | 424 kts | 296° |
| 2026-05-04 17:05 | 41.72838 | 28.28720 | 15602 ft | 432 kts | 296° |
| 2026-05-04 17:05 | 41.75245 | 28.21333 | 16533 ft | 434 kts | 296° |
| 2026-05-04 17:06 | 41.77657 | 28.13900 | 17409 ft | 436 kts | 296° |
| 2026-05-04 17:06 | 41.78878 | 28.10185 | 17791 ft | 437 kts | 297° |
| 2026-05-04 17:07 | 41.82233 | 28.03395 | 18415 ft | 439 kts | 309° |
| 2026-05-04 17:07 | 41.82832 | 28.02336 | 18492 ft | 440 kts | 309° |
| 2026-05-04 17:07 | 41.85943 | 27.96838 | 18904 ft | 444 kts | 309° |
| 2026-05-04 17:07 | 41.87803 | 27.93540 | 19222 ft | 444 kts | 309° |
| 2026-05-04 17:08 | 41.89661 | 27.90230 | 19555 ft | 444 kts | 308° |
| 2026-05-04 17:08 | 41.93385 | 27.83565 | 20077 ft | 449 kts | 308° |
| 2026-05-04 17:08 | 41.95244 | 27.80233 | 20255 ft | 453 kts | 308° |
| 2026-05-04 17:09 | 41.96551 | 27.77973 | 20413 ft | 454 kts | 311° |
| 2026-05-04 17:09 | 41.98714 | 27.74874 | 20703 ft | 454 kts | 315° |
| 2026-05-04 17:09 | 42.00941 | 27.71830 | 20854 ft | 459 kts | 315° |
| 2026-05-04 17:10 | 42.05444 | 27.65671 | 21422 ft | 462 kts | 315° |
| 2026-05-04 17:10 | 42.12217 | 27.56388 | 22513 ft | 463 kts | 315° |
| 2026-05-04 17:11 | 42.14449 | 27.53314 | 22786 ft | 466 kts | 314° |
| 2026-05-04 17:11 | 42.16761 | 27.50127 | 23001 ft | 471 kts | 314° |
| 2026-05-04 17:11 | 42.21336 | 27.43820 | 23513 ft | 476 kts | 314° |
| 2026-05-04 17:12 | 42.23645 | 27.40633 | 23824 ft | 476 kts | 314° |
| 2026-05-04 17:12 | 42.28265 | 27.34247 | 24523 ft | 474 kts | 313° |
| 2026-05-04 17:13 | 42.35084 | 27.24768 | 25820 ft | 466 kts | 313° |
| 2026-05-04 17:14 | 42.41875 | 27.15319 | 26775 ft | 466 kts | 313° |
| 2026-05-04 17:14 | 42.44124 | 27.12177 | 27128 ft | 465 kts | 313° |
| 2026-05-04 17:14 | 42.48611 | 27.05911 | 27899 ft | 461 kts | 313° |
| 2026-05-04 17:15 | 42.50842 | 27.02786 | 28250 ft | 460 kts | 313° |
| 2026-05-04 17:15 | 42.55286 | 26.96556 | 28879 ft | 460 kts | 313° |
| 2026-05-04 17:16 | 42.59721 | 26.90325 | 29523 ft | 459 kts | 312° |
| 2026-05-04 17:16 | 42.66328 | 26.81009 | 30384 ft | 457 kts | 313° |
| 2026-05-04 17:17 | 42.68532 | 26.77891 | 30635 ft | 457 kts | 312° |
| 2026-05-04 17:17 | 42.75131 | 26.68467 | 31397 ft | 460 kts | 314° |
| 2026-05-04 17:18 | 42.77370 | 26.65332 | 31683 ft | 460 kts | 314° |
| 2026-05-04 17:18 | 42.81741 | 26.59005 | 32332 ft | 459 kts | 309° |
| 2026-05-04 17:19 | 42.85570 | 26.52031 | 32844 ft | 460 kts | 307° |
| 2026-05-04 17:19 | 42.89359 | 26.45002 | 33416 ft | 459 kts | 308° |
| 2026-05-04 17:20 | 42.93130 | 26.38006 | 33958 ft | 457 kts | 308° |
| 2026-05-04 17:20 | 42.96870 | 26.31071 | 34411 ft | 455 kts | 308° |
| 2026-05-04 17:20 | 42.98738 | 26.27588 | 34598 ft | 455 kts | 308° |
| 2026-05-04 17:21 | 43.02479 | 26.20635 | 34989 ft | 453 kts | 308° |
| 2026-05-04 17:21 | 43.06207 | 26.13681 | 35314 ft | 453 kts | 308° |
| 2026-05-04 17:22 | 43.08073 | 26.10192 | 35474 ft | 453 kts | 308° |
| 2026-05-04 17:22 | 43.09934 | 26.06706 | 35619 ft | 453 kts | 308° |
| 2026-05-04 17:23 | 43.15492 | 25.96277 | 36088 ft | 452 kts | 308° |
| 2026-05-04 17:23 | 43.17316 | 25.92835 | 36099 ft | 451 kts | 308° |
| 2026-05-04 17:24 | 43.22846 | 25.82414 | 36049 ft | 450 kts | 308° |
| 2026-05-04 17:25 | 43.30189 | 25.68529 | 36056 ft | 449 kts | 308° |
| 2026-05-04 17:26 | 43.37490 | 25.54639 | 36056 ft | 448 kts | 308° |
| 2026-05-04 17:27 | 43.46585 | 25.37256 | 36051 ft | 447 kts | 308° |
| 2026-05-04 17:28 | 43.53830 | 25.23326 | 36058 ft | 448 kts | 308° |
| 2026-05-04 17:29 | 43.64654 | 25.02403 | 36056 ft | 446 kts | 308° |
| 2026-05-04 17:31 | 43.73616 | 24.84955 | 36057 ft | 447 kts | 308° |
| 2026-05-04 17:32 | 43.82572 | 24.67417 | 36059 ft | 445 kts | 308° |
| 2026-05-04 17:33 | 43.89713 | 24.53360 | 36055 ft | 445 kts | 308° |
| 2026-05-04 17:34 | 43.96800 | 24.39340 | 36056 ft | 444 kts | 308° |
| 2026-05-04 17:35 | 44.05630 | 24.21761 | 36052 ft | 443 kts | 308° |
| 2026-05-04 17:36 | 44.09149 | 24.14737 | 36043 ft | 442 kts | 308° |
| 2026-05-04 17:36 | 44.12656 | 24.07728 | 36039 ft | 442 kts | 308° |
| 2026-05-04 17:37 | 44.16140 | 24.00734 | 36028 ft | 441 kts | 308° |
| 2026-05-04 17:37 | 44.19625 | 23.93698 | 36026 ft | 441 kts | 307° |
| 2026-05-04 17:38 | 44.23096 | 23.86649 | 36021 ft | 441 kts | 307° |
| 2026-05-04 17:38 | 44.26588 | 23.79618 | 36022 ft | 440 kts | 308° |
| 2026-05-04 17:39 | 44.32364 | 23.69725 | 36028 ft | 437 kts | 315° |
| 2026-05-04 17:39 | 44.36444 | 23.63428 | 36029 ft | 437 kts | 315° |
| 2026-05-04 17:40 | 44.40521 | 23.57129 | 36035 ft | 437 kts | 315° |
| 2026-05-04 17:40 | 44.44591 | 23.50819 | 36033 ft | 436 kts | 315° |
| 2026-05-04 17:41 | 44.48676 | 23.44501 | 36036 ft | 437 kts | 315° |
| 2026-05-04 17:41 | 44.52740 | 23.38163 | 35942 ft | 438 kts | 313° |
| 2026-05-04 17:42 | 44.56825 | 23.31756 | 36023 ft | 442 kts | 313° |
| 2026-05-04 17:42 | 44.60886 | 23.25397 | 36032 ft | 436 kts | 313° |
| 2026-05-04 17:43 | 44.64836 | 23.18991 | 36040 ft | 437 kts | 312° |
| 2026-05-04 17:43 | 44.68837 | 23.12577 | 36036 ft | 436 kts | 313° |
| 2026-05-04 17:44 | 44.72870 | 23.06214 | 36041 ft | 436 kts | 313° |
| 2026-05-04 17:44 | 44.76910 | 22.99840 | 36032 ft | 436 kts | 313° |
| 2026-05-04 17:45 | 44.80945 | 22.93456 | 36038 ft | 435 kts | 313° |
| 2026-05-04 17:45 | 44.84976 | 22.87064 | 36044 ft | 436 kts | 313° |
| 2026-05-04 17:46 | 44.88946 | 22.80688 | 36059 ft | 436 kts | 312° |
| 2026-05-04 17:46 | 44.92844 | 22.74079 | 36064 ft | 435 kts | 311° |
| 2026-05-04 17:47 | 44.96668 | 22.67447 | 36075 ft | 435 kts | 311° |
| 2026-05-04 17:47 | 45.00484 | 22.60803 | 36073 ft | 435 kts | 311° |
| 2026-05-04 17:48 | 45.04259 | 22.54206 | 36087 ft | 435 kts | 311° |
| 2026-05-04 17:48 | 45.08052 | 22.47544 | 36088 ft | 434 kts | 311° |
| 2026-05-04 17:49 | 45.11848 | 22.40888 | 36099 ft | 436 kts | 311° |
| 2026-05-04 17:49 | 45.15640 | 22.34217 | 36097 ft | 435 kts | 311° |
| 2026-05-04 17:50 | 45.19420 | 22.27548 | 36099 ft | 434 kts | 311° |
| 2026-05-04 17:50 | 45.23193 | 22.20881 | 36101 ft | 432 kts | 311° |
| 2026-05-04 17:51 | 45.26953 | 22.14211 | 36103 ft | 432 kts | 310° |
| 2026-05-04 17:51 | 45.30687 | 22.07517 | 36097 ft | 432 kts | 311° |
| 2026-05-04 17:52 | 45.34444 | 22.00865 | 36094 ft | 432 kts | 311° |
| 2026-05-04 17:52 | 45.38199 | 21.94186 | 36093 ft | 432 kts | 310° |
| 2026-05-04 17:53 | 45.41929 | 21.87513 | 36093 ft | 431 kts | 310° |
| 2026-05-04 17:53 | 45.45657 | 21.80822 | 36084 ft | 431 kts | 310° |
| 2026-05-04 17:54 | 45.49381 | 21.74129 | 36082 ft | 431 kts | 310° |
| 2026-05-04 17:54 | 45.53083 | 21.67458 | 36082 ft | 431 kts | 310° |
| 2026-05-04 17:55 | 45.56775 | 21.60731 | 36082 ft | 431 kts | 310° |
| 2026-05-04 17:55 | 45.60474 | 21.54010 | 36074 ft | 431 kts | 310° |
| 2026-05-04 17:56 | 45.64186 | 21.47288 | 36078 ft | 430 kts | 310° |
| 2026-05-04 17:56 | 45.67277 | 21.41709 | 36078 ft | 430 kts | 310° |
| 2026-05-04 17:57 | 45.70973 | 21.34989 | 36081 ft | 430 kts | 310° |
| 2026-05-04 17:57 | 45.74668 | 21.28230 | 36081 ft | 430 kts | 310° |
| 2026-05-04 17:58 | 45.78349 | 21.21489 | 36081 ft | 430 kts | 310° |
| 2026-05-04 17:58 | 45.82035 | 21.14718 | 36081 ft | 430 kts | 310° |
| 2026-05-04 17:59 | 45.85706 | 21.07960 | 36080 ft | 430 kts | 310° |
| 2026-05-04 18:00 | 45.90928 | 20.97476 | 36077 ft | 432 kts | 304° |
| 2026-05-04 18:00 | 45.94093 | 20.90198 | 36075 ft | 432 kts | 304° |
| 2026-05-04 18:01 | 45.97274 | 20.82876 | 36068 ft | 432 kts | 304° |
| 2026-05-04 18:01 | 46.00472 | 20.75566 | 36068 ft | 432 kts | 304° |
| 2026-05-04 18:02 | 46.05251 | 20.64563 | 36067 ft | 432 kts | 304° |
| 2026-05-04 18:02 | 46.08427 | 20.57209 | 36070 ft | 432 kts | 304° |
| 2026-05-04 18:03 | 46.11578 | 20.49834 | 36073 ft | 432 kts | 304° |
| 2026-05-04 18:03 | 46.14740 | 20.42462 | 36067 ft | 432 kts | 304° |
| 2026-05-04 18:04 | 46.17647 | 20.34865 | 36071 ft | 433 kts | 300° |
| 2026-05-04 18:05 | 46.21789 | 20.23271 | 36068 ft | 433 kts | 299° |
| 2026-05-04 18:05 | 46.24541 | 20.15524 | 36063 ft | 433 kts | 299° |
| 2026-05-04 18:06 | 46.28668 | 20.03893 | 36066 ft | 433 kts | 299° |
| 2026-05-04 18:06 | 46.31420 | 19.96114 | 36063 ft | 433 kts | 299° |
| 2026-05-04 18:07 | 46.34142 | 19.88400 | 36061 ft | 434 kts | 298° |
| 2026-05-04 18:07 | 46.36880 | 19.80621 | 36063 ft | 433 kts | 298° |
| 2026-05-04 18:08 | 46.39608 | 19.72833 | 36058 ft | 433 kts | 298° |
| 2026-05-04 18:08 | 46.42416 | 19.65104 | 36059 ft | 433 kts | 301° |
| 2026-05-04 18:09 | 46.48397 | 19.49955 | 36048 ft | 433 kts | 301° |
| 2026-05-04 18:10 | 46.51369 | 19.42351 | 36053 ft | 433 kts | 301° |
| 2026-05-04 18:10 | 46.54340 | 19.34740 | 36041 ft | 433 kts | 301° |
| 2026-05-04 18:11 | 46.57298 | 19.27124 | 36043 ft | 433 kts | 301° |
| 2026-05-04 18:11 | 46.60248 | 19.19502 | 36045 ft | 432 kts | 300° |
| 2026-05-04 18:12 | 46.63192 | 19.11866 | 36042 ft | 433 kts | 300° |
| 2026-05-04 18:12 | 46.66126 | 19.04278 | 36041 ft | 432 kts | 300° |
| 2026-05-04 18:13 | 46.69069 | 18.96637 | 36042 ft | 432 kts | 300° |
| 2026-05-04 18:14 | 46.73464 | 18.85155 | 36039 ft | 432 kts | 300° |
| 2026-05-04 18:14 | 46.76377 | 18.77495 | 36038 ft | 432 kts | 300° |
| 2026-05-04 18:15 | 46.82195 | 18.62202 | 36035 ft | 432 kts | 300° |
| 2026-05-04 18:16 | 46.85087 | 18.54520 | 36033 ft | 431 kts | 299° |
| 2026-05-04 18:16 | 46.87990 | 18.46836 | 36032 ft | 431 kts | 300° |
| 2026-05-04 18:17 | 46.92328 | 18.35321 | 36029 ft | 431 kts | 299° |
| 2026-05-04 18:18 | 46.96669 | 18.23763 | 36021 ft | 431 kts | 299° |
| 2026-05-04 18:18 | 46.99550 | 18.16047 | 36019 ft | 431 kts | 299° |
| 2026-05-04 18:19 | 47.03838 | 18.04457 | 36022 ft | 431 kts | 299° |
| 2026-05-04 18:19 | 47.06681 | 17.96776 | 36019 ft | 431 kts | 299° |
| 2026-05-04 18:20 | 47.09536 | 17.89054 | 36017 ft | 431 kts | 299° |
| 2026-05-04 18:20 | 47.12389 | 17.81327 | 36019 ft | 430 kts | 299° |
| 2026-05-04 18:21 | 47.15223 | 17.73587 | 36005 ft | 430 kts | 298° |
| 2026-05-04 18:21 | 47.18053 | 17.65848 | 36001 ft | 430 kts | 299° |
| 2026-05-04 18:22 | 47.20888 | 17.58109 | 36001 ft | 430 kts | 298° |
| 2026-05-04 18:22 | 47.23712 | 17.50367 | 35994 ft | 429 kts | 298° |
| 2026-05-04 18:23 | 47.26531 | 17.42613 | 35993 ft | 429 kts | 298° |
| 2026-05-04 18:23 | 47.29330 | 17.34858 | 35996 ft | 429 kts | 298° |
| 2026-05-04 18:24 | 47.32125 | 17.27107 | 35993 ft | 428 kts | 298° |
| 2026-05-04 18:24 | 47.34917 | 17.19350 | 35992 ft | 428 kts | 298° |
| 2026-05-04 18:25 | 47.37714 | 17.11587 | 35983 ft | 428 kts | 298° |
| 2026-05-04 18:25 | 47.40490 | 17.03810 | 35982 ft | 428 kts | 298° |
| 2026-05-04 18:26 | 47.43256 | 16.96039 | 35977 ft | 428 kts | 298° |
| 2026-05-04 18:26 | 47.46022 | 16.88265 | 35970 ft | 427 kts | 298° |
| 2026-05-04 18:27 | 47.48783 | 16.80478 | 35969 ft | 427 kts | 297° |
| 2026-05-04 18:27 | 47.51513 | 16.72741 | 35965 ft | 427 kts | 297° |
| 2026-05-04 18:28 | 47.54281 | 16.64900 | 35959 ft | 427 kts | 297° |
| 2026-05-04 18:28 | 47.57002 | 16.57162 | 35968 ft | 427 kts | 297° |
| 2026-05-04 18:29 | 47.59736 | 16.49357 | 35963 ft | 426 kts | 297° |
| 2026-05-04 18:29 | 47.62456 | 16.41550 | 35957 ft | 426 kts | 297° |
| 2026-05-04 18:30 | 47.66548 | 16.29843 | 35957 ft | 426 kts | 296° |
| 2026-05-04 18:31 | 47.69263 | 16.22021 | 35952 ft | 426 kts | 296° |
| 2026-05-04 18:31 | 47.71973 | 16.14197 | 35957 ft | 426 kts | 296° |
| 2026-05-04 18:32 | 47.74682 | 16.06341 | 35954 ft | 427 kts | 296° |
| 2026-05-04 18:32 | 47.77377 | 15.98494 | 35955 ft | 427 kts | 296° |
| 2026-05-04 18:33 | 47.80054 | 15.90677 | 35957 ft | 427 kts | 296° |
| 2026-05-04 18:33 | 47.82746 | 15.82795 | 35953 ft | 427 kts | 296° |
| 2026-05-04 18:34 | 47.85431 | 15.74918 | 35948 ft | 427 kts | 296° |
| 2026-05-04 18:34 | 47.88110 | 15.67025 | 35941 ft | 427 kts | 296° |
| 2026-05-04 18:35 | 47.90790 | 15.59115 | 35942 ft | 427 kts | 296° |
| 2026-05-04 18:35 | 47.93464 | 15.51179 | 35939 ft | 428 kts | 295° |
| 2026-05-04 18:36 | 47.96134 | 15.43246 | 35933 ft | 428 kts | 295° |
| 2026-05-04 18:36 | 47.98790 | 15.35300 | 35930 ft | 428 kts | 295° |
| 2026-05-04 18:37 | 48.01438 | 15.27390 | 35922 ft | 428 kts | 295° |
| 2026-05-04 18:37 | 48.04095 | 15.19431 | 35915 ft | 428 kts | 295° |
| 2026-05-04 18:38 | 48.06744 | 15.11459 | 35901 ft | 428 kts | 295° |
| 2026-05-04 18:38 | 48.09390 | 15.03478 | 35903 ft | 429 kts | 295° |
| 2026-05-04 18:39 | 48.12034 | 14.95469 | 35896 ft | 429 kts | 295° |
| 2026-05-04 18:39 | 48.14671 | 14.87458 | 35896 ft | 429 kts | 295° |
| 2026-05-04 18:40 | 48.17308 | 14.79426 | 35888 ft | 429 kts | 295° |
| 2026-05-04 18:40 | 48.19935 | 14.71388 | 35888 ft | 429 kts | 294° |
| 2026-05-04 18:41 | 48.22548 | 14.63359 | 35888 ft | 429 kts | 294° |
| 2026-05-04 18:41 | 48.24729 | 14.56651 | 35884 ft | 429 kts | 294° |
| 2026-05-04 18:42 | 48.27768 | 14.47283 | 35882 ft | 429 kts | 294° |
| 2026-05-04 18:42 | 48.29953 | 14.40529 | 35880 ft | 430 kts | 294° |
| 2026-05-04 18:43 | 48.32556 | 14.32450 | 35876 ft | 430 kts | 294° |
| 2026-05-04 18:43 | 48.35155 | 14.24349 | 35878 ft | 431 kts | 294° |
| 2026-05-04 18:44 | 48.37753 | 14.16234 | 35874 ft | 431 kts | 294° |
| 2026-05-04 18:44 | 48.40347 | 14.08109 | 35879 ft | 431 kts | 294° |
| 2026-05-04 18:45 | 48.42940 | 13.99959 | 35885 ft | 432 kts | 294° |
| 2026-05-04 18:45 | 48.45528 | 13.91787 | 35890 ft | 432 kts | 294° |
| 2026-05-04 18:46 | 48.48108 | 13.83621 | 35890 ft | 432 kts | 293° |
| 2026-05-04 18:46 | 48.50684 | 13.75447 | 35895 ft | 431 kts | 293° |
| 2026-05-04 18:47 | 48.53245 | 13.67274 | 35892 ft | 431 kts | 293° |
| 2026-05-04 18:47 | 48.55792 | 13.59135 | 35894 ft | 431 kts | 293° |
| 2026-05-04 18:48 | 48.58338 | 13.50931 | 35896 ft | 431 kts | 291° |
| 2026-05-04 18:48 | 48.60445 | 13.42486 | 35898 ft | 430 kts | 288° |
| 2026-05-04 18:49 | 48.62471 | 13.33978 | 35898 ft | 430 kts | 288° |
| 2026-05-04 18:49 | 48.64507 | 13.25482 | 35898 ft | 430 kts | 288° |
| 2026-05-04 18:50 | 48.66542 | 13.16969 | 35901 ft | 430 kts | 287° |
| 2026-05-04 18:50 | 48.68567 | 13.08457 | 35901 ft | 430 kts | 287° |
| 2026-05-04 18:51 | 48.70570 | 12.99987 | 35905 ft | 430 kts | 287° |
| 2026-05-04 18:51 | 48.72577 | 12.91457 | 35905 ft | 430 kts | 287° |
| 2026-05-04 18:52 | 48.74579 | 12.82926 | 35905 ft | 430 kts | 287° |
| 2026-05-04 18:52 | 48.76571 | 12.74383 | 35904 ft | 430 kts | 287° |
| 2026-05-04 18:53 | 48.78561 | 12.65834 | 35909 ft | 430 kts | 287° |
| 2026-05-04 18:53 | 48.80542 | 12.57279 | 35914 ft | 430 kts | 287° |
| 2026-05-04 18:54 | 48.82517 | 12.48723 | 35916 ft | 430 kts | 287° |
| 2026-05-04 18:54 | 48.84485 | 12.40153 | 35918 ft | 430 kts | 286° |
| 2026-05-04 18:55 | 48.86447 | 12.31581 | 35920 ft | 430 kts | 286° |
| 2026-05-04 18:55 | 48.89355 | 12.18715 | 35928 ft | 429 kts | 285° |
| 2026-05-04 18:56 | 48.91181 | 12.10131 | 35923 ft | 429 kts | 285° |
| 2026-05-04 18:56 | 48.93016 | 12.01484 | 35918 ft | 429 kts | 285° |
| 2026-05-04 18:57 | 48.94851 | 11.92841 | 35922 ft | 429 kts | 285° |
| 2026-05-04 18:57 | 48.96684 | 11.84179 | 35923 ft | 429 kts | 285° |
| 2026-05-04 18:58 | 48.98512 | 11.75532 | 35931 ft | 429 kts | 285° |
| 2026-05-04 18:58 | 49.00330 | 11.66854 | 35920 ft | 430 kts | 285° |
| 2026-05-04 18:59 | 49.02141 | 11.58177 | 35923 ft | 430 kts | 285° |
| 2026-05-04 18:59 | 49.03952 | 11.49483 | 35929 ft | 431 kts | 284° |
| 2026-05-04 19:00 | 49.05756 | 11.40772 | 35922 ft | 431 kts | 284° |
| 2026-05-04 19:00 | 49.07560 | 11.32039 | 35925 ft | 431 kts | 284° |
| 2026-05-04 19:01 | 49.09343 | 11.23364 | 35925 ft | 431 kts | 284° |
| 2026-05-04 19:01 | 49.11129 | 11.14627 | 35940 ft | 432 kts | 284° |
| 2026-05-04 19:02 | 49.12907 | 11.05874 | 35950 ft | 432 kts | 284° |
| 2026-05-04 19:02 | 49.14683 | 10.97102 | 35963 ft | 432 kts | 284° |
| 2026-05-04 19:03 | 49.16448 | 10.88335 | 35971 ft | 432 kts | 284° |
| 2026-05-04 19:03 | 49.18212 | 10.79571 | 35975 ft | 431 kts | 284° |
| 2026-05-04 19:04 | 49.19925 | 10.70784 | 35977 ft | 430 kts | 282° |
| 2026-05-04 19:04 | 49.21494 | 10.62034 | 35982 ft | 429 kts | 282° |
| 2026-05-04 19:05 | 49.23070 | 10.53242 | 35976 ft | 428 kts | 282° |
| 2026-05-04 19:05 | 49.24631 | 10.44454 | 35975 ft | 427 kts | 282° |
| 2026-05-04 19:06 | 49.26181 | 10.35692 | 35976 ft | 426 kts | 282° |
| 2026-05-04 19:06 | 49.27722 | 10.26904 | 35971 ft | 427 kts | 282° |
| 2026-05-04 19:07 | 49.29257 | 10.18119 | 35969 ft | 427 kts | 282° |
| 2026-05-04 19:07 | 49.30787 | 10.09334 | 35965 ft | 428 kts | 281° |
| 2026-05-04 19:08 | 49.32315 | 10.00515 | 35966 ft | 428 kts | 281° |
| 2026-05-04 19:08 | 49.33843 | 9.91660 | 35968 ft | 428 kts | 281° |
| 2026-05-04 19:09 | 49.35355 | 9.82837 | 35967 ft | 429 kts | 281° |
| 2026-05-04 19:09 | 49.36859 | 9.73995 | 35968 ft | 429 kts | 281° |
| 2026-05-04 19:10 | 49.38359 | 9.65184 | 35974 ft | 429 kts | 281° |
| 2026-05-04 19:10 | 49.39856 | 9.56303 | 35963 ft | 429 kts | 281° |
| 2026-05-04 19:11 | 49.41349 | 9.47427 | 35967 ft | 430 kts | 281° |
| 2026-05-04 19:11 | 49.42837 | 9.38521 | 35971 ft | 430 kts | 281° |
| 2026-05-04 19:12 | 49.45051 | 9.25179 | 35968 ft | 430 kts | 280° |
| 2026-05-04 19:13 | 49.46516 | 9.16268 | 35973 ft | 430 kts | 279° |
| 2026-05-04 19:13 | 49.47798 | 9.07313 | 35969 ft | 429 kts | 278° |
| 2026-05-04 19:14 | 49.49052 | 8.98333 | 35976 ft | 429 kts | 278° |
| 2026-05-04 19:14 | 49.50296 | 8.89352 | 35980 ft | 429 kts | 278° |
| 2026-05-04 19:15 | 49.51535 | 8.80360 | 35986 ft | 429 kts | 278° |
| 2026-05-04 19:15 | 49.52766 | 8.71363 | 35990 ft | 429 kts | 278° |
| 2026-05-04 19:16 | 49.53981 | 8.62424 | 35995 ft | 429 kts | 278° |
| 2026-05-04 19:16 | 49.55198 | 8.53436 | 35995 ft | 430 kts | 278° |
| 2026-05-04 19:17 | 49.56416 | 8.44392 | 35996 ft | 430 kts | 277° |
| 2026-05-04 19:17 | 49.57617 | 8.35392 | 35990 ft | 430 kts | 277° |
| 2026-05-04 19:18 | 49.58807 | 8.26405 | 35976 ft | 430 kts | 277° |
| 2026-05-04 19:18 | 49.60000 | 8.17383 | 35977 ft | 430 kts | 277° |
| 2026-05-04 19:19 | 49.61188 | 8.08338 | 35978 ft | 430 kts | 277° |
| 2026-05-04 19:19 | 49.62363 | 7.99277 | 35976 ft | 430 kts | 277° |
| 2026-05-04 19:20 | 49.63542 | 7.90208 | 35967 ft | 432 kts | 277° |
| 2026-05-04 19:20 | 49.64707 | 7.81146 | 35964 ft | 431 kts | 277° |
| 2026-05-04 19:21 | 49.65865 | 7.72075 | 35971 ft | 431 kts | 277° |
| 2026-05-04 19:21 | 49.67015 | 7.63010 | 35970 ft | 431 kts | 276° |
| 2026-05-04 19:22 | 49.68152 | 7.53968 | 35974 ft | 431 kts | 276° |
| 2026-05-04 19:22 | 49.69283 | 7.44872 | 35976 ft | 431 kts | 276° |
| 2026-05-04 19:23 | 49.70416 | 7.35772 | 35993 ft | 431 kts | 276° |
| 2026-05-04 19:23 | 49.71543 | 7.26678 | 35993 ft | 431 kts | 276° |
| 2026-05-04 19:24 | 49.72659 | 7.17574 | 35998 ft | 431 kts | 276° |
| 2026-05-04 19:24 | 49.73772 | 7.08466 | 35987 ft | 431 kts | 276° |
| 2026-05-04 19:25 | 49.74874 | 6.99357 | 35988 ft | 431 kts | 276° |
| 2026-05-04 19:25 | 49.75967 | 6.90256 | 35978 ft | 430 kts | 276° |
| 2026-05-04 19:26 | 49.77033 | 6.81206 | 35971 ft | 431 kts | 276° |
| 2026-05-04 19:26 | 49.78120 | 6.72091 | 35968 ft | 431 kts | 276° |
| 2026-05-04 19:27 | 49.79203 | 6.62964 | 35969 ft | 431 kts | 276° |
| 2026-05-04 19:27 | 49.80268 | 6.53857 | 35973 ft | 431 kts | 275° |
| 2026-05-04 19:28 | 49.81250 | 6.44700 | 35962 ft | 428 kts | 270° |
| 2026-05-04 19:28 | 49.81237 | 6.40138 | 35958 ft | 422 kts | 259° |
| 2026-05-04 19:28 | 49.80937 | 6.37167 | 35965 ft | 420 kts | 255° |
| 2026-05-04 19:29 | 49.79729 | 6.28337 | 35970 ft | 419 kts | 254° |
| 2026-05-04 19:29 | 49.78530 | 6.19508 | 35967 ft | 420 kts | 255° |
| 2026-05-04 19:30 | 49.77353 | 6.10645 | 35966 ft | 420 kts | 255° |
| 2026-05-04 19:30 | 49.76172 | 6.01837 | 35968 ft | 420 kts | 255° |
| 2026-05-04 19:31 | 49.74977 | 5.92994 | 35969 ft | 421 kts | 255° |
| 2026-05-04 19:31 | 49.73545 | 5.84245 | 35961 ft | 418 kts | 248° |
| 2026-05-04 19:32 | 49.71580 | 5.75775 | 35964 ft | 418 kts | 247° |
| 2026-05-04 19:32 | 49.69597 | 5.67322 | 35963 ft | 419 kts | 247° |
| 2026-05-04 19:33 | 49.67613 | 5.58840 | 35965 ft | 420 kts | 247° |
| 2026-05-04 19:33 | 49.65624 | 5.50350 | 35963 ft | 420 kts | 247° |
| 2026-05-04 19:34 | 49.63627 | 5.41864 | 35960 ft | 421 kts | 247° |
| 2026-05-04 19:34 | 49.61699 | 5.33338 | 35962 ft | 422 kts | 249° |
| 2026-05-04 19:35 | 49.59896 | 5.24841 | 34998 ft | 416 kts | 250° |
| 2026-05-04 19:35 | 49.59272 | 5.20519 | 34182 ft | 421 kts | 258° |
| 2026-05-04 19:35 | 49.59124 | 5.16003 | 33480 ft | 422 kts | 265° |
| 2026-05-04 19:35 | 49.59169 | 5.11490 | 32815 ft | 419 kts | 266° |
| 2026-05-04 19:36 | 49.59232 | 5.07024 | 32198 ft | 414 kts | 266° |
| 2026-05-04 19:36 | 49.59282 | 5.02605 | 31593 ft | 413 kts | 266° |
| 2026-05-04 19:36 | 49.59323 | 4.98183 | 30976 ft | 413 kts | 266° |
| 2026-05-04 19:36 | 49.59358 | 4.93741 | 30358 ft | 413 kts | 265° |
| 2026-05-04 19:37 | 49.59388 | 4.89321 | 29705 ft | 413 kts | 266° |
| 2026-05-04 19:37 | 49.59418 | 4.84892 | 28987 ft | 413 kts | 266° |
| 2026-05-04 19:37 | 49.59446 | 4.80518 | 28283 ft | 413 kts | 266° |
| 2026-05-04 19:37 | 49.59470 | 4.76079 | 27606 ft | 415 kts | 266° |
| 2026-05-04 19:38 | 49.59490 | 4.71507 | 27199 ft | 438 kts | 267° |
| 2026-05-04 19:38 | 49.59514 | 4.66763 | 26898 ft | 445 kts | 267° |
| 2026-05-04 19:38 | 49.59536 | 4.61980 | 26613 ft | 446 kts | 268° |
| 2026-05-04 19:38 | 49.59560 | 4.57231 | 25945 ft | 442 kts | 268° |
| 2026-05-04 19:39 | 49.59581 | 4.52511 | 25111 ft | 440 kts | 268° |
| 2026-05-04 19:39 | 49.59595 | 4.47800 | 24308 ft | 438 kts | 268° |
| 2026-05-04 19:39 | 49.59609 | 4.43113 | 23622 ft | 439 kts | 269° |
| 2026-05-04 19:39 | 49.59624 | 4.38304 | 22915 ft | 448 kts | 269° |
| 2026-05-04 19:40 | 49.59634 | 4.33546 | 22224 ft | 442 kts | 269° |
| 2026-05-04 19:40 | 49.59641 | 4.28832 | 21631 ft | 437 kts | 269° |
| 2026-05-04 19:40 | 49.59486 | 4.24200 | 20962 ft | 429 kts | 259° |
| 2026-05-04 19:40 | 49.58655 | 4.19836 | 20309 ft | 424 kts | 249° |
| 2026-05-04 19:41 | 49.57603 | 4.15589 | 19651 ft | 422 kts | 248° |
| 2026-05-04 19:41 | 49.56561 | 4.11370 | 19055 ft | 428 kts | 249° |
| 2026-05-04 19:41 | 49.55513 | 4.07054 | 18688 ft | 431 kts | 249° |
| 2026-05-04 19:41 | 49.54465 | 4.02737 | 18417 ft | 430 kts | 249° |
| 2026-05-04 19:42 | 49.53426 | 3.98416 | 18140 ft | 429 kts | 249° |
| 2026-05-04 19:42 | 49.52400 | 3.94118 | 17867 ft | 428 kts | 249° |
| 2026-05-04 19:42 | 49.51244 | 3.89245 | 17559 ft | 426 kts | 250° |
| 2026-05-04 19:42 | 49.50224 | 3.84961 | 17291 ft | 425 kts | 250° |
| 2026-05-04 19:43 | 49.49208 | 3.80703 | 17032 ft | 424 kts | 250° |
| 2026-05-04 19:43 | 49.48187 | 3.76440 | 16770 ft | 423 kts | 250° |
| 2026-05-04 19:43 | 49.47171 | 3.72212 | 16516 ft | 422 kts | 250° |
| 2026-05-04 19:43 | 49.46151 | 3.67967 | 16260 ft | 421 kts | 250° |
| 2026-05-04 19:44 | 49.45150 | 3.63754 | 15954 ft | 420 kts | 251° |
| 2026-05-04 19:44 | 49.44360 | 3.59471 | 15581 ft | 411 kts | 255° |
| 2026-05-04 19:44 | 49.43649 | 3.55267 | 15289 ft | 403 kts | 255° |
| 2026-05-04 19:44 | 49.42952 | 3.51138 | 15019 ft | 401 kts | 255° |
| 2026-05-04 19:45 | 49.42225 | 3.46882 | 14916 ft | 416 kts | 255° |
| 2026-05-04 19:45 | 49.41233 | 3.42794 | 14895 ft | 399 kts | 244° |
| 2026-05-04 19:45 | 49.40045 | 3.39072 | 14914 ft | 378 kts | 243° |
| 2026-05-04 19:45 | 49.38887 | 3.35477 | 14921 ft | 375 kts | 244° |
| 2026-05-04 19:46 | 49.37735 | 3.31883 | 14933 ft | 375 kts | 244° |
| 2026-05-04 19:46 | 49.36571 | 3.28297 | 14948 ft | 390 kts | 243° |
| 2026-05-04 19:46 | 49.35339 | 3.24465 | 14956 ft | 411 kts | 244° |
| 2026-05-04 19:46 | 49.34441 | 3.20254 | 14947 ft | 418 kts | 260° |
| 2026-05-04 19:47 | 49.34279 | 3.15814 | 14885 ft | 418 kts | 270° |
| 2026-05-04 19:47 | 49.34331 | 3.11359 | 14700 ft | 417 kts | 271° |
| 2026-05-04 19:47 | 49.34380 | 3.06916 | 14477 ft | 416 kts | 271° |
| 2026-05-04 19:47 | 49.34355 | 3.02476 | 14229 ft | 416 kts | 265° |
| 2026-05-04 19:48 | 49.33763 | 2.98149 | 13958 ft | 415 kts | 251° |
| 2026-05-04 19:48 | 49.32630 | 2.94091 | 13651 ft | 414 kts | 244° |
| 2026-05-04 19:48 | 49.31340 | 2.90152 | 13216 ft | 413 kts | 242° |
| 2026-05-04 19:48 | 49.30017 | 2.86253 | 12817 ft | 412 kts | 242° |
| 2026-05-04 19:49 | 49.28685 | 2.82363 | 12411 ft | 411 kts | 242° |
| 2026-05-04 19:49 | 49.27362 | 2.78511 | 12022 ft | 407 kts | 242° |
| 2026-05-04 19:49 | 49.26069 | 2.74748 | 11630 ft | 387 kts | 242° |
| 2026-05-04 19:49 | 49.24846 | 2.71187 | 11200 ft | 370 kts | 242° |
| 2026-05-04 19:50 | 49.23679 | 2.67790 | 10955 ft | 349 kts | 242° |
| 2026-05-04 19:50 | 49.22589 | 2.64618 | 10896 ft | 325 kts | 242° |
| 2026-05-04 19:50 | 49.21574 | 2.61660 | 10888 ft | 304 kts | 242° |
| 2026-05-04 19:50 | 49.20598 | 2.58815 | 10801 ft | 300 kts | 242° |
| 2026-05-04 19:51 | 49.19635 | 2.56005 | 10444 ft | 299 kts | 242° |
| 2026-05-04 19:51 | 49.18682 | 2.53233 | 9982 ft | 297 kts | 242° |
| 2026-05-04 19:51 | 49.17722 | 2.50447 | 9464 ft | 295 kts | 242° |
| 2026-05-04 19:51 | 49.16765 | 2.47677 | 8949 ft | 292 kts | 242° |
| 2026-05-04 19:52 | 49.15825 | 2.44953 | 8489 ft | 289 kts | 242° |
| 2026-05-04 19:52 | 49.14895 | 2.42257 | 8046 ft | 284 kts | 242° |
| 2026-05-04 19:52 | 49.13981 | 2.39602 | 7611 ft | 280 kts | 242° |
| 2026-05-04 19:52 | 49.13084 | 2.36992 | 7184 ft | 276 kts | 242° |
| 2026-05-04 19:53 | 49.12199 | 2.34416 | 6789 ft | 273 kts | 242° |
| 2026-05-04 19:53 | 49.11318 | 2.31850 | 6375 ft | 271 kts | 242° |
| 2026-05-04 19:53 | 49.10444 | 2.29308 | 5919 ft | 270 kts | 242° |
| 2026-05-04 19:53 | 49.09569 | 2.26776 | 5474 ft | 268 kts | 242° |
| 2026-05-04 19:54 | 49.08680 | 2.24217 | 5066 ft | 276 kts | 242° |
| 2026-05-04 19:54 | 49.07778 | 2.21621 | 4853 ft | 275 kts | 242° |
| 2026-05-04 19:54 | 49.06939 | 2.19099 | 5270 ft | 256 kts | 246° |
| 2026-05-04 19:54 | 49.06467 | 2.16509 | 5331 ft | 254 kts | 260° |
| 2026-05-04 19:55 | 49.06178 | 2.13853 | 5072 ft | 253 kts | 262° |
| 2026-05-04 19:55 | 49.05909 | 2.11242 | 4750 ft | 252 kts | 259° |
| 2026-05-04 19:55 | 49.05196 | 2.08699 | 4416 ft | 272 kts | 233° |
| 2026-05-04 19:55 | 49.03796 | 2.06784 | 4093 ft | 272 kts | 208° |
| 2026-05-04 19:56 | 49.02025 | 2.06001 | 3967 ft | 259 kts | 180° |
| 2026-05-04 19:56 | 49.00316 | 2.06481 | 3948 ft | 248 kts | 152° |
| 2026-05-04 19:56 | 48.99017 | 2.08235 | 3978 ft | 259 kts | 120° |
| 2026-05-04 19:56 | 48.98546 | 2.10738 | 3988 ft | 239 kts | 86° |
| 2026-05-04 19:57 | 48.98987 | 2.13082 | 3986 ft | 229 kts | 64° |
| 2026-05-04 19:57 | 48.99677 | 2.15260 | 3988 ft | 229 kts | 65° |
| 2026-05-04 19:57 | 49.00071 | 2.16746 | 3988 ft | 226 kts | 70° |
| 2026-05-04 19:57 | 49.00578 | 2.19701 | 3967 ft | 207 kts | 79° |
| 2026-05-04 19:58 | 49.00725 | 2.21132 | 3974 ft | 207 kts | 82° |
| 2026-05-04 19:58 | 49.00886 | 2.23308 | 4001 ft | 207 kts | 84° |
| 2026-05-04 19:58 | 49.01013 | 2.25479 | 3869 ft | 201 kts | 84° |
| 2026-05-04 19:58 | 49.01124 | 2.27521 | 3708 ft | 189 kts | 84° |
| 2026-05-04 19:59 | 49.01230 | 2.29466 | 3461 ft | 182 kts | 84° |
| 2026-05-04 19:59 | 49.01332 | 2.31375 | 3199 ft | 177 kts | 84° |
| 2026-05-04 19:59 | 49.01432 | 2.33213 | 2933 ft | 171 kts | 84° |
| 2026-05-04 19:59 | 49.01526 | 2.34977 | 2690 ft | 164 kts | 84° |
| 2026-05-04 20:00 | 49.01647 | 2.37210 | 2397 ft | 158 kts | 84° |
| 2026-05-04 20:00 | 49.01707 | 2.38336 | 2259 ft | 157 kts | 84° |
| 2026-05-04 20:00 | 49.01824 | 2.40514 | 2032 ft | 146 kts | 84° |
| 2026-05-04 20:00 | 49.01878 | 2.41524 | 1890 ft | 139 kts | 84° |
| 2026-05-04 20:01 | 49.01957 | 2.42989 | 1685 ft | 139 kts | 84° |
| 2026-05-04 20:01 | 49.02036 | 2.44452 | 1483 ft | 138 kts | 84° |
| 2026-05-04 20:01 | 49.02114 | 2.45897 | 1296 ft | 139 kts | 84° |
| 2026-05-04 20:01 | 49.02192 | 2.47360 | 1079 ft | 139 kts | 84° |
| 2026-05-04 20:02 | 49.02271 | 2.48824 | 888 ft | 138 kts | 84° |
| 2026-05-04 20:02 | 49.02352 | 2.50285 | 658 ft | 138 kts | 83° |
| 2026-05-04 20:02 | 49.02430 | 2.51739 | 477 ft | 138 kts | 85° |
| 2026-05-04 20:02 | 49.02498 | 2.53196 | 374 ft | 136 kts | 83° |
| 2026-05-04 20:03 | 49.02580 | 2.54433 | 364 ft | 90 kts | 85° |
| 2026-05-04 20:03 | 49.02616 | 2.55076 | 360 ft | 32 kts | 85° |
| 2026-05-04 20:03 | 49.02620 | 2.55165 | 366 ft | 0 kts | 91° |
| 2026-05-04 20:03 | 49.02605 | 2.55224 | 365 ft | 9 kts | 117° |
| 2026-05-04 20:04 | 49.02573 | 2.55314 | 362 ft | 10 kts | 120° |
| 2026-05-04 20:04 | 49.02541 | 2.55396 | 364 ft | 8 kts | 121° |
| 2026-05-04 20:04 | 49.02511 | 2.55484 | 363 ft | 11 kts | 116° |
| 2026-05-04 20:04 | 49.02486 | 2.55556 | 362 ft | 5 kts | 124° |
| 2026-05-04 20:05 | 49.02450 | 2.55598 | 360 ft | 8 kts | 158° |
| 2026-05-04 20:05 | 49.02390 | 2.55616 | 361 ft | 10 kts | 179° |
| 2026-05-04 20:05 | 49.02311 | 2.55623 | 366 ft | 12 kts | 174° |
| 2026-05-04 20:05 | 49.02233 | 2.55634 | 361 ft | 10 kts | 174° |
| 2026-05-04 20:06 | 49.02159 | 2.55645 | 363 ft | 8 kts | 173° |
| 2026-05-04 20:06 | 49.02099 | 2.55683 | 361 ft | 11 kts | 135° |
| 2026-05-04 20:06 | 49.02083 | 2.55805 | 365 ft | 13 kts | 84° |
| 2026-05-04 20:06 | 49.02091 | 2.55939 | 367 ft | 12 kts | 86° |
| 2026-05-04 20:07 | 49.02095 | 2.56046 | 361 ft | 11 kts | 86° |
| 2026-05-04 20:07 | 49.02099 | 2.56164 | 362 ft | 11 kts | 89° |
| 2026-05-04 20:07 | 49.02072 | 2.56286 | 366 ft | 14 kts | 123° |
| 2026-05-04 20:07 | 49.02030 | 2.56385 | 363 ft | 10 kts | 110° |
| 2026-05-04 20:08 | 49.02027 | 2.56503 | 364 ft | 12 kts | 84° |
| 2026-05-04 20:08 | 49.02035 | 2.56645 | 364 ft | 14 kts | 85° |
| 2026-05-04 20:08 | 49.02042 | 2.56777 | 363 ft | 11 kts | 85° |
| 2026-05-04 20:08 | 49.02048 | 2.56907 | 361 ft | 13 kts | 86° |
| 2026-05-04 20:09 | 49.02055 | 2.57058 | 361 ft | 15 kts | 86° |
| 2026-05-04 20:09 | 49.02062 | 2.57230 | 367 ft | 17 kts | 86° |
| 2026-05-04 20:09 | 49.02069 | 2.57401 | 361 ft | 11 kts | 85° |
| 2026-05-04 20:09 | 49.02077 | 2.57528 | 364 ft | 13 kts | 84° |
| 2026-05-04 20:10 | 49.02087 | 2.57676 | 361 ft | 14 kts | 85° |
| 2026-05-04 20:10 | 49.02079 | 2.57795 | 364 ft | 12 kts | 97° |
| 2026-05-04 20:10 | 49.02056 | 2.57931 | 362 ft | 13 kts | 124° |
| 2026-05-04 20:10 | 49.01996 | 2.58030 | 360 ft | 12 kts | 136° |
| 2026-05-04 20:11 | 49.01918 | 2.58095 | 361 ft | 14 kts | 160° |
| 2026-05-04 20:11 | 49.01818 | 2.58127 | 362 ft | 16 kts | 174° |
| 2026-05-04 20:11 | 49.01700 | 2.58137 | 366 ft | 18 kts | 178° |
| 2026-05-04 20:11 | 49.01571 | 2.58152 | 365 ft | 19 kts | 175° |
| 2026-05-04 20:12 | 49.01444 | 2.58170 | 361 ft | 15 kts | 175° |
| 2026-05-04 20:12 | 49.01338 | 2.58184 | 364 ft | 16 kts | 175° |
| 2026-05-04 20:12 | 49.01221 | 2.58199 | 364 ft | 18 kts | 175° |
| 2026-05-04 20:12 | 49.01117 | 2.58212 | 367 ft | 9 kts | 175° |
| 2026-05-04 20:13 | 49.01046 | 2.58221 | 360 ft | 11 kts | 175° |
| 2026-05-04 20:13 | 49.00966 | 2.58241 | 364 ft | 11 kts | 150° |
| 2026-05-04 20:13 | 49.00927 | 2.58342 | 364 ft | 11 kts | 99° |
| 2026-05-04 20:13 | 49.00925 | 2.58475 | 367 ft | 14 kts | 84° |
| 2026-05-04 20:14 | 49.00917 | 2.58579 | 365 ft | 9 kts | 118° |
| 2026-05-04 20:14 | 49.00859 | 2.58645 | 360 ft | 12 kts | 156° |
| 2026-05-04 20:14 | 49.00783 | 2.58686 | 361 ft | 12 kts | 169° |
| 2026-05-04 20:14 | 49.00694 | 2.58698 | 360 ft | 14 kts | 175° |
| 2026-05-04 20:15 | 49.00599 | 2.58711 | 359 ft | 12 kts | 175° |
| 2026-05-04 20:15 | 49.00510 | 2.58722 | 359 ft | 14 kts | 175° |
| 2026-05-04 20:15 | 49.00406 | 2.58733 | 360 ft | 16 kts | 176° |
| 2026-05-04 20:15 | 49.00290 | 2.58746 | 359 ft | 16 kts | 176° |
| 2026-05-04 20:16 | 49.00248 | 2.58751 | 359 ft | 5 kts | 176° |
| 2026-05-04 20:16 | 49.00204 | 2.58755 | 360 ft | 8 kts | 176° |
| 2026-05-04 20:16 | 49.00148 | 2.58760 | 359 ft | 8 kts | 176° |
| 2026-05-04 20:16 | 49.00107 | 2.58763 | 360 ft | 0 kts | 177° |
| 2026-05-04 20:17 | 49.00095 | 2.58763 | 362 ft | 3 kts | 182° |
| 2026-05-04 20:17 | 49.00070 | 2.58748 | 363 ft | 5 kts | 211° |
| 2026-05-04 20:17 | 49.00039 | 2.58695 | 360 ft | 8 kts | 242° |
| 2026-05-04 20:17 | 49.00027 | 2.58590 | 360 ft | 13 kts | 265° |
| 2026-05-04 20:18 | 49.00019 | 2.58439 | 360 ft | 12 kts | 265° |
| 2026-05-04 20:18 | 49.00040 | 2.58345 | 362 ft | 7 kts | 326° |
| 2026-05-04 20:18 | 49.00096 | 2.58339 | 362 ft | 9 kts | 7° |
| 2026-05-04 20:18 | 49.00136 | 2.58342 | 362 ft | 3 kts | 354° |
| 2026-05-04 20:19 | 49.00158 | 2.58357 | 361 ft | 5 kts | 67° |
| 2026-05-04 20:19 | 49.00163 | 2.58387 | 361 ft | 2 kts | 80° |
| 2026-05-04 20:19 | 49.00165 | 2.58403 | 363 ft | 1 kts | 81° |
| 2026-05-04 20:19 | 49.00165 | 2.58407 | 362 ft | 0 kts | 81° |
| 2026-05-04 20:20 | 49.00165 | 2.58409 | 362 ft | 0 kts | 84° |
| 2026-05-04 20:20 | 49.00166 | 2.58414 | 361 ft | 0 kts | 79° |
| 2026-05-04 20:20 | 49.00166 | 2.58418 | 361 ft | 1 kts | 82° |
| 2026-05-04 20:20 | 49.00166 | 2.58424 | 360 ft | 0 kts | 88° |
| 2026-05-04 20:21 | 49.00167 | 2.58425 | 360 ft | 0 kts | 82° |